Hurley, Wisconsin
Current Conditions -  °F | °C
As of 9:55 AM on Friday 28 Nov 2014 (Local Time) from KIWD Reporting Station
Overcast Overcast  
Wind Chill:   Ceiling: 2400
Heat Index: 10°   Visibility: 10mi
Dew Point:   Wind: 6mph
Humidity: 85%   Direction: 110°ESE
Pressure: 30.02"   Gusts: NA
Location:  46.45°N, 90.19°W
Report Text: KIWD 281555Z AUTO 11005KT 10SM BKN024 OVC032 M12/M14 A3002 RMK AO1
Loading
Personal Weather Stations






























Interactive Weather Map New forecast layout! Learn more

10-Day Weather Forecast

Advertisements
Track Severe Weather on mobile